Time;durP1;ratioP1;P1;durP2;ratioP2;P2;SDS_P1;SDS_P2;PMS_P1;PMS_P2;Temp;Humidity;BMP_temperature;BMP_pressure;BME280_temperature;BME280_humidity;BME280_pressure;Samples;Min_cycle;Max_cycle;Signal;HPM_P1;HPM_P2
2022/10/30 00:01:42;;;;;;;45.08;41.05;;;;;;;5.34;100.00;101835.53;5181025;22;20046;-85
2022/10/30 00:04:09;;;;;;;47.25;42.35;;;;;;;5.33;100.00;101828.63;5025486;28;20452;-80
2022/10/30 00:06:35;;;;;;;44.70;40.67;;;;;;;5.24;100.00;101825.06;5032348;28;20057;-81
2022/10/30 00:09:02;;;;;;;42.55;38.80;;;;;;;5.30;100.00;101822.81;5026052;28;20050;-81
2022/10/30 00:11:29;;;;;;;43.95;40.30;;;;;;;5.28;100.00;101821.16;5027275;28;20428;-80
2022/10/30 00:13:56;;;;;;;41.50;37.70;;;;;;;5.25;100.00;101820.59;5029028;28;20048;-80
2022/10/30 00:16:24;;;;;;;41.03;37.85;;;;;;;5.19;100.00;101814.09;5029782;28;20484;-80
2022/10/30 00:18:50;;;;;;;43.55;39.70;;;;;;;5.18;100.00;101814.25;5024576;28;20045;-79
2022/10/30 00:21:17;;;;;;;45.22;41.25;;;;;;;5.22;100.00;101810.34;5023955;28;20491;-81
2022/10/30 00:23:48;;;;;;;43.45;39.80;;;;;;;5.29;100.00;101803.53;5027961;28;20049;-80
2022/10/30 00:26:15;;;;;;;43.45;39.97;;;;;;;5.24;100.00;101798.72;5016518;28;20136;-80
2022/10/30 00:28:42;;;;;;;42.58;39.17;;;;;;;5.25;100.00;101797.72;5028135;28;20515;-83
2022/10/30 00:31:09;;;;;;;43.70;39.88;;;;;;;5.30;100.00;101807.00;5027834;28;20382;-80
2022/10/30 00:33:37;;;;;;;42.90;39.42;;;;;;;5.46;100.00;101794.03;5027414;28;20045;-80
2022/10/30 00:36:04;;;;;;;40.42;36.90;;;;;;;5.33;100.00;101794.38;5028350;28;20053;-79
2022/10/30 00:38:31;;;;;;;40.08;36.78;;;;;;;5.22;100.00;101792.75;5030242;28;20049;-80
2022/10/30 00:40:58;;;;;;;41.67;38.50;;;;;;;5.70;100.00;101791.69;5022871;28;20548;-80
2022/10/30 00:43:34;;;;;;;40.42;37.33;;;;;;;5.40;100.00;101792.81;5028840;28;20127;-79
2022/10/30 00:46:19;;;;;;;42.42;38.92;;;;;;;5.56;100.00;101786.06;5023732;28;20472;-82
2022/10/30 00:48:51;;;;;;;41.72;38.72;;;;;;;5.49;100.00;101784.03;5023693;28;20045;-83
2022/10/30 00:51:19;;;;;;;41.40;38.22;;;;;;;5.57;100.00;101785.09;5023866;28;20473;-81
2022/10/30 00:53:47;;;;;;;42.05;38.67;;;;;;;5.76;100.00;101787.63;5025319;28;20481;-79
2022/10/30 00:56:17;;;;;;;42.75;39.35;;;;;;;5.71;100.00;101785.44;5016981;28;20137;-79
2022/10/30 00:58:50;;;;;;;40.90;37.60;;;;;;;5.56;100.00;101783.44;5028543;28;20107;-79
2022/10/30 01:01:21;;;;;;;42.47;39.38;;;;;;;5.76;100.00;101782.34;5184049;22;20048;-85
2022/10/30 01:03:52;;;;;;;41.28;38.35;;;;;;;5.74;100.00;101785.13;5073003;28;20045;-82
2022/10/30 01:06:19;;;;;;;43.58;40.47;;;;;;;5.97;100.00;101775.03;5074675;28;20458;-83
2022/10/30 01:08:47;;;;;;;41.80;38.55;;;;;;;5.73;100.00;101777.38;5066230;28;20041;-82
2022/10/30 01:11:13;;;;;;;41.85;38.20;;;;;;;5.57;100.00;101771.91;5069862;28;20051;-82
2022/10/30 01:13:43;;;;;;;40.75;37.45;;;;;;;5.58;100.00;101768.31;5073776;28;20401;-82
2022/10/30 01:16:29;;;;;;;41.65;38.28;;;;;;;5.59;100.00;101780.50;5073221;28;20053;-82
2022/10/30 01:19:07;;;;;;;44.55;41.05;;;;;;;5.32;100.00;101768.16;5071489;28;20530;-82
2022/10/30 01:21:48;;;;;;;47.42;43.13;;;;;;;5.23;100.00;101775.13;5071297;28;20048;-85
2022/10/30 01:24:30;;;;;;;45.65;41.45;;;;;;;5.10;100.00;101769.38;5070561;28;20064;-85
2022/10/30 01:27:08;;;;;;;45.45;41.30;;;;;;;5.20;100.00;101767.50;5072134;28;20516;-85
2022/10/30 01:29:45;;;;;;;46.20;41.78;;;;;;;5.11;100.00;101776.28;5065245;28;20122;-85
2022/10/30 01:32:28;;;;;;;44.22;40.25;;;;;;;5.27;100.00;101766.81;5066373;28;20114;-85
2022/10/30 01:35:02;;;;;;;40.83;37.47;;;;;;;5.24;100.00;101767.09;5063291;28;20048;-85
2022/10/30 01:37:36;;;;;;;38.92;35.72;;;;;;;5.25;100.00;101765.28;5072795;28;20052;-85
2022/10/30 01:40:09;;;;;;;40.70;37.33;;;;;;;5.26;100.00;101764.31;5072352;28;20049;-85
2022/10/30 01:42:45;;;;;;;39.10;36.22;;;;;;;5.12;100.00;101762.16;5068273;28;20049;-85
2022/10/30 01:45:16;;;;;;;41.67;38.70;;;;;;;5.13;100.00;101750.66;5068986;28;20473;-84
2022/10/30 01:47:58;;;;;;;38.67;35.60;;;;;;;5.21;100.00;101743.69;5072163;28;20423;-81
2022/10/30 01:50:38;;;;;;;38.33;35.63;;;;;;;5.13;100.00;101745.38;5068240;28;20049;-82
2022/10/30 01:53:17;;;;;;;39.60;36.70;;;;;;;5.23;100.00;101741.75;5071650;28;20446;-81
2022/10/30 01:55:53;;;;;;;38.38;35.58;;;;;;;4.91;100.00;101738.69;5063609;28;20053;-81
2022/10/30 01:58:27;;;;;;;38.75;35.78;;;;;;;5.25;100.00;101744.22;5071576;28;20045;-82
2022/10/30 02:00:58;;;;;;;38.22;35.25;;;;;;;5.28;100.00;101744.75;5071522;28;20057;-85
2022/10/30 02:03:25;;;;;;;39.08;36.08;;;;;;;5.30;100.00;101743.78;5070603;28;20102;-84
2022/10/30 02:05:54;;;;;;;41.47;38.28;;;;;;;5.59;100.00;101739.16;5067257;28;20114;-85
2022/10/30 02:08:21;;;;;;;39.22;36.22;;;;;;;5.62;100.00;101741.50;5056834;28;20049;-84
2022/10/30 02:10:51;;;;;;;39.00;36.03;;;;;;;5.40;100.00;101729.56;5072742;28;20052;-82
2022/10/30 02:13:19;;;;;;;38.03;35.10;;;;;;;5.47;100.00;101730.63;5072026;28;20181;-85
2022/10/30 02:15:47;;;;;;;38.58;35.42;;;;;;;5.48;100.00;101729.69;5075037;28;20055;-84
2022/10/30 02:18:14;;;;;;;39.30;36.10;;;;;;;5.44;100.00;101728.28;5073498;28;20101;-81
2022/10/30 02:20:42;;;;;;;40.15;36.50;;;;;;;5.46;100.00;101723.72;5074720;28;20530;-82
2022/10/30 02:23:12;;;;;;;39.92;36.63;;;;;;;5.48;100.00;101727.03;5075020;28;20057;-82
2022/10/30 02:25:38;;;;;;;39.03;35.70;;;;;;;5.20;100.00;101726.19;5074855;28;20048;-82
2022/10/30 02:28:05;;;;;;;39.22;36.15;;;;;;;5.10;100.00;101727.22;5075441;28;20460;-83
2022/10/30 02:30:32;;;;;;;37.95;35.03;;;;;;;4.98;100.00;101724.78;5074359;28;20041;-81
2022/10/30 02:32:59;;;;;;;38.83;35.72;;;;;;;5.12;100.00;101731.38;5073346;28;20044;-82
2022/10/30 02:35:25;;;;;;;38.67;35.53;;;;;;;5.09;100.00;101729.03;5072399;28;20127;-81
2022/10/30 02:37:53;;;;;;;39.95;36.67;;;;;;;5.09;100.00;101729.03;5074920;28;20478;-81
2022/10/30 02:40:20;;;;;;;42.25;38.80;;;;;;;5.13;100.00;101733.03;5074408;28;20040;-82
2022/10/30 02:42:52;;;;;;;45.13;41.70;;;;;;;5.19;100.00;101747.44;5073570;28;20109;-82
2022/10/30 02:45:18;;;;;;;42.30;39.20;;;;;;;5.16;100.00;101738.00;5073664;28;20518;-81
2022/10/30 02:47:45;;;;;;;40.63;37.33;;;;;;;4.90;100.00;101729.09;5071061;28;20506;-81
2022/10/30 02:50:12;;;;;;;39.95;36.70;;;;;;;4.93;100.00;101728.81;5074402;28;20451;-82
2022/10/30 02:52:40;;;;;;;42.03;38.38;;;;;;;4.73;100.00;101731.53;5070005;28;20094;-82
2022/10/30 02:55:09;;;;;;;39.97;36.78;;;;;;;4.65;100.00;101727.94;5074721;28;20048;-82
2022/10/30 02:57:36;;;;;;;44.50;41.13;;;;;;;4.88;100.00;101729.25;5073713;28;20110;-82
2022/10/30 03:00:03;;;;;;;42.47;39.40;;;;;;;4.67;100.00;101732.09;5072407;28;20106;-81
2022/10/30 03:02:30;;;;;;;41.97;38.28;;;;;;;4.56;100.00;101726.97;5071867;28;20056;-82
2022/10/30 03:04:56;;;;;;;44.55;40.75;;;;;;;4.98;100.00;101726.59;5067512;28;20472;-81
2022/10/30 03:07:23;;;;;;;42.70;38.90;;;;;;;5.18;100.00;101724.72;5072881;28;20048;-82
2022/10/30 03:09:50;;;;;;;45.72;41.58;;;;;;;5.14;100.00;101721.50;5075758;28;20037;-82
2022/10/30 03:12:19;;;;;;;45.50;41.20;;;;;;;5.15;100.00;101722.38;5075452;28;20103;-82
2022/10/30 03:14:46;;;;;;;45.97;41.65;;;;;;;5.00;100.00;101712.31;5069796;28;20044;-82
2022/10/30 03:17:13;;;;;;;47.80;43.08;;;;;;;5.04;100.00;101711.03;5075471;28;20049;-82
2022/10/30 03:19:40;;;;;;;47.78;42.95;;;;;;;4.93;100.00;101699.84;5075525;28;20113;-82
2022/10/30 03:22:07;;;;;;;49.38;44.60;;;;;;;5.16;100.00;101705.59;5075631;28;20551;-82
2022/10/30 03:24:34;;;;;;;52.75;44.55;;;;;;;5.39;100.00;101708.66;5074263;28;20141;-81
2022/10/30 03:27:01;;;;;;;52.65;45.38;;;;;;;5.47;100.00;101699.00;5073977;28;20048;-82
2022/10/30 03:29:30;;;;;;;53.97;47.13;;;;;;;5.47;100.00;101701.66;5066143;28;20110;-81
2022/10/30 03:31:56;;;;;;;50.30;44.83;;;;;;;5.27;100.00;101698.31;5074442;28;20052;-82
2022/10/30 03:34:23;;;;;;;57.17;48.85;;;;;;;5.48;100.00;101703.31;5073468;28;20378;-82
2022/10/30 03:36:50;;;;;;;51.30;46.17;;;;;;;5.39;100.00;101698.94;5069868;28;20053;-82
2022/10/30 03:39:16;;;;;;;48.95;44.08;;;;;;;5.27;100.00;101702.75;5072794;28;20048;-81
2022/10/30 03:41:43;;;;;;;49.47;44.15;;;;;;;5.51;100.00;101700.41;5073805;28;20162;-81
2022/10/30 03:44:10;;;;;;;50.50;45.30;;;;;;;5.14;100.00;101703.06;5074248;28;20048;-81
2022/10/30 03:46:38;;;;;;;48.80;43.83;;;;;;;5.46;100.00;101701.81;5073999;28;20113;-81
2022/10/30 03:49:05;;;;;;;48.30;43.53;;;;;;;5.28;100.00;101693.88;5073939;28;20045;-82
2022/10/30 03:51:32;;;;;;;49.08;43.53;;;;;;;5.29;100.00;101698.16;5073478;28;20044;-82
2022/10/30 03:53:59;;;;;;;49.85;44.80;;;;;;;5.46;100.00;101694.72;5071268;28;20053;-81
2022/10/30 03:56:26;;;;;;;46.35;41.88;;;;;;;5.35;100.00;101705.47;5071147;28;20048;-82
2022/10/30 03:58:53;;;;;;;48.60;44.03;;;;;;;5.49;100.00;101701.50;5072814;28;20056;-82
2022/10/30 04:01:20;;;;;;;45.75;41.70;;;;;;;5.41;100.00;101698.78;5071612;28;20064;-80
2022/10/30 04:03:49;;;;;;;42.58;38.42;;;;;;;5.30;100.00;101699.84;5072737;28;20044;-81
2022/10/30 04:06:15;;;;;;;42.58;38.97;;;;;;;5.30;100.00;101699.84;5073013;28;20558;-82
2022/10/30 04:08:42;;;;;;;41.80;38.38;;;;;;;5.14;100.00;101695.19;5071728;28;20100;-81
2022/10/30 04:11:10;;;;;;;41.65;38.03;;;;;;;5.23;100.00;101689.06;5066901;28;20461;-85
2022/10/30 04:13:37;;;;;;;44.13;40.10;;;;;;;5.07;100.00;101695.94;5072899;28;20459;-85
2022/10/30 04:16:05;;;;;;;41.08;37.42;;;;;;;5.11;100.00;101686.75;5073349;28;20049;-82
2022/10/30 04:18:32;;;;;;;41.45;38.30;;;;;;;5.11;100.00;101692.84;5074674;28;20131;-82
2022/10/30 04:21:00;;;;;;;39.60;36.28;;;;;;;4.91;100.00;101683.38;5074921;28;20057;-82
2022/10/30 04:23:27;;;;;;;40.33;36.83;;;;;;;5.07;100.00;101686.22;5073646;28;20056;-83
2022/10/30 04:25:54;;;;;;;39.90;36.53;;;;;;;5.08;100.00;101679.97;5073256;28;20049;-82
2022/10/30 04:28:21;;;;;;;43.22;39.83;;;;;;;5.20;100.00;101675.34;5073693;28;20048;-82
2022/10/30 04:30:48;;;;;;;41.10;37.67;;;;;;;5.21;100.00;101684.91;5074236;28;20057;-82
2022/10/30 04:33:15;;;;;;;41.67;38.38;;;;;;;5.29;100.00;101692.88;5073945;28;20055;-82
2022/10/30 04:35:42;;;;;;;43.22;39.72;;;;;;;5.46;100.00;101688.63;5074592;28;20040;-83
2022/10/30 04:38:12;;;;;;;41.45;38.10;;;;;;;5.46;100.00;101683.38;5073412;28;20052;-82
2022/10/30 04:40:41;;;;;;;43.20;39.60;;;;;;;5.40;100.00;101683.97;5073371;28;20049;-83
2022/10/30 04:43:10;;;;;;;43.08;39.90;;;;;;;5.57;100.00;101674.41;5075369;28;20106;-82
2022/10/30 04:45:37;;;;;;;40.85;37.45;;;;;;;5.42;100.00;101680.22;5072543;28;20438;-82
2022/10/30 04:48:07;;;;;;;39.47;36.13;;;;;;;5.17;100.00;101686.16;5069985;28;20460;-82
2022/10/30 04:50:34;;;;;;;41.17;37.72;;;;;;;5.18;100.00;101682.56;5072396;28;20496;-82
2022/10/30 04:53:02;;;;;;;47.85;43.05;;;;;;;5.33;100.00;101686.38;5068480;28;20041;-82
2022/10/30 04:55:32;;;;;;;42.15;38.08;;;;;;;5.44;100.00;101686.13;5071588;28;20114;-82
2022/10/30 04:58:01;;;;;;;43.03;37.67;;;;;;;5.42;100.00;101684.66;5073911;28;20435;-82
2022/10/30 05:00:30;;;;;;;41.45;37.67;;;;;;;5.40;100.00;101684.78;5070821;28;20151;-83
2022/10/30 05:02:59;;;;;;;39.72;36.10;;;;;;;5.03;100.00;101693.59;5067239;28;20060;-83
2022/10/30 05:05:27;;;;;;;44.10;40.20;;;;;;;5.47;100.00;101688.47;5070256;28;20567;-83
2022/10/30 05:07:55;;;;;;;42.63;39.22;;;;;;;5.54;100.00;101693.16;5070486;28;20102;-82
2022/10/30 05:10:21;;;;;;;42.80;38.97;;;;;;;5.61;100.00;101683.69;5067596;28;20087;-85
2022/10/30 05:12:51;;;;;;;42.20;38.65;;;;;;;5.56;100.00;101699.94;5071232;28;20461;-85
2022/10/30 05:15:18;;;;;;;46.30;42.05;;;;;;;5.97;100.00;101698.56;5070475;28;20045;-85
2022/10/30 05:17:45;;;;;;;43.60;39.20;;;;;;;6.00;100.00;101696.59;5069171;28;20048;-85
2022/10/30 05:20:12;;;;;;;44.33;40.72;;;;;;;6.13;100.00;101689.94;5068588;28;20052;-85
2022/10/30 05:22:38;;;;;;;43.95;40.38;;;;;;;6.24;100.00;101690.69;5071040;28;20049;-85
2022/10/30 05:25:06;;;;;;;43.08;39.45;;;;;;;6.37;100.00;101701.66;5067597;28;20044;-85
2022/10/30 05:27:33;;;;;;;41.63;38.03;;;;;;;6.48;100.00;101704.06;5065325;28;20052;-85
2022/10/30 05:30:01;;;;;;;41.65;37.92;;;;;;;6.56;100.00;101708.53;5048046;28;20045;-85
2022/10/30 05:32:27;;;;;;;41.25;37.75;;;;;;;6.53;100.00;101708.84;5048309;28;20045;-85
2022/10/30 05:34:54;;;;;;;43.35;39.38;;;;;;;6.90;100.00;101705.97;5048943;28;20106;-85
2022/10/30 05:37:21;;;;;;;43.17;39.38;;;;;;;7.03;100.00;101710.81;5049926;28;20126;-85
2022/10/30 05:39:47;;;;;;;42.50;38.75;;;;;;;7.19;100.00;101715.31;5050010;28;20049;-82
2022/10/30 05:42:14;;;;;;;44.40;40.50;;;;;;;6.98;100.00;101713.91;5049553;28;20465;-81
2022/10/30 05:44:41;;;;;;;48.53;43.30;;;;;;;7.07;100.00;101720.88;5051635;28;20045;-82
2022/10/30 05:47:11;;;;;;;53.35;47.38;;;;;;;7.36;100.00;101718.84;5051925;28;20474;-82
2022/10/30 05:49:38;;;;;;;52.60;44.97;;;;;;;7.72;100.00;101722.91;5050162;28;20045;-82
2022/10/30 05:52:04;;;;;;;97.50;73.32;;;;;;;7.79;100.00;101723.09;5050108;28;20060;-82
2022/10/30 05:54:31;;;;;;;93.82;69.75;;;;;;;8.22;100.00;101714.00;5049700;28;20076;-82
2022/10/30 05:56:58;;;;;;;96.78;74.65;;;;;;;8.61;100.00;101710.69;5053357;28;20140;-82
2022/10/30 05:59:25;;;;;;;70.07;58.63;;;;;;;8.90;100.00;101710.13;5055754;28;20122;-82
2022/10/30 06:01:51;;;;;;;56.03;50.53;;;;;;;9.42;100.00;101716.72;5054995;28;20053;-82
2022/10/30 06:04:19;;;;;;;50.90;46.50;;;;;;;9.49;100.00;101709.69;5048077;28;20045;-82
2022/10/30 06:06:46;;;;;;;51.30;46.97;;;;;;;10.04;100.00;101703.34;5055645;28;20044;-83
2022/10/30 06:09:13;;;;;;;45.97;42.45;;;;;;;10.26;100.00;101699.06;5049084;28;20498;-82
2022/10/30 06:11:40;;;;;;;45.97;42.13;;;;;;;10.37;100.00;101702.28;5055263;28;20057;-83
2022/10/30 06:14:07;;;;;;;45.20;41.60;;;;;;;10.64;100.00;101704.31;5055222;28;20045;-83
2022/10/30 06:16:34;;;;;;;44.55;41.05;;;;;;;11.04;100.00;101701.38;5054528;28;20057;-82
2022/10/30 06:19:01;;;;;;;44.10;40.10;;;;;;;10.99;100.00;101705.44;5054668;28;20049;-81
2022/10/30 06:21:29;;;;;;;43.15;39.60;;;;;;;11.77;100.00;101704.88;5054176;28;20114;-83
2022/10/30 06:23:57;;;;;;;45.33;41.35;;;;;;;11.72;100.00;101704.63;5055176;28;20457;-83
2022/10/30 06:26:24;;;;;;;42.50;39.17;;;;;;;12.00;100.00;101705.53;5055209;28;20535;-85
2022/10/30 06:28:51;;;;;;;41.97;38.90;;;;;;;12.24;100.00;101698.19;5054670;28;20045;-85
2022/10/30 06:31:18;;;;;;;39.53;36.72;;;;;;;12.20;100.00;101697.75;5052071;28;20053;-85
2022/10/30 06:33:44;;;;;;;44.47;40.67;;;;;;;12.67;100.00;101693.53;5055653;28;20079;-82
2022/10/30 06:36:11;;;;;;;52.72;47.40;;;;;;;12.73;100.00;101695.44;5055997;28;20061;-81
2022/10/30 06:38:39;;;;;;;47.97;43.30;;;;;;;12.71;100.00;101688.63;5055303;28;20404;-84
2022/10/30 06:41:06;;;;;;;52.17;47.28;;;;;;;13.21;100.00;101694.63;5053782;28;20049;-85
2022/10/30 06:43:33;;;;;;;45.55;42.03;;;;;;;13.83;100.00;101692.75;5054007;28;20048;-85
2022/10/30 06:46:00;;;;;;;46.20;42.50;;;;;;;13.86;100.00;101695.06;5048451;28;20111;-85
2022/10/30 06:48:26;;;;;;;51.10;46.13;;;;;;;14.16;100.00;101685.63;5051114;28;20052;-85
2022/10/30 06:50:54;;;;;;;61.47;49.45;;;;;;;13.97;100.00;101681.06;5052533;28;20053;-84
2022/10/30 06:53:21;;;;;;;58.63;50.58;;;;;;;14.75;100.00;101683.09;5053670;28;20049;-84
2022/10/30 06:55:55;;;;;;;66.95;52.90;;;;;;;15.90;100.00;101683.16;5056466;28;20474;-82
2022/10/30 06:58:22;;;;;;;53.25;47.58;;;;;;;16.17;100.00;101673.84;5053471;28;20132;-82
2022/10/30 07:00:49;;;;;;;49.03;44.45;;;;;;;16.43;100.00;101674.63;5054319;28;20063;-82
2022/10/30 07:03:16;;;;;;;47.05;42.50;;;;;;;16.22;100.00;101659.81;5049713;28;20104;-83
2022/10/30 07:05:45;;;;;;;46.45;41.92;;;;;;;16.81;100.00;101663.72;5047527;28;20049;-85
2022/10/30 07:08:13;;;;;;;42.50;39.10;;;;;;;16.75;100.00;101658.41;5055245;28;20111;-83
2022/10/30 07:10:40;;;;;;;41.78;38.55;;;;;;;16.61;100.00;101660.41;5055013;28;20045;-82
2022/10/30 07:13:09;;;;;;;43.75;40.35;;;;;;;16.90;100.00;101666.94;5055341;28;20045;-82
2022/10/30 07:15:37;;;;;;;45.55;41.33;;;;;;;18.43;100.00;101664.66;5050180;28;20521;-83
2022/10/30 07:18:07;;;;;;;39.00;36.20;;;;;;;16.63;100.00;101664.53;5047223;28;20045;-82
2022/10/30 07:20:35;;;;;;;39.15;36.50;;;;;;;17.49;100.00;101668.03;5051569;28;20048;-84
2022/10/30 07:23:02;;;;;;;39.22;36.63;;;;;;;17.12;100.00;101667.28;5054740;28;20125;-85
2022/10/30 07:25:30;;;;;;;38.90;36.30;;;;;;;16.69;100.00;101666.31;5054497;28;20110;-81
2022/10/30 07:27:57;;;;;;;38.97;36.38;;;;;;;17.32;100.00;101662.47;5055624;28;20063;-82
2022/10/30 07:30:27;;;;;;;39.58;36.75;;;;;;;18.29;100.00;101659.50;5028010;28;20471;-82
2022/10/30 07:32:58;;;;;;;39.63;36.92;;;;;;;19.15;100.00;101659.72;5053987;28;20052;-82
2022/10/30 07:35:25;;;;;;;39.78;37.10;;;;;;;18.20;100.00;101662.78;5055738;28;20139;-82
2022/10/30 07:37:52;;;;;;;40.03;37.42;;;;;;;17.94;100.00;101670.25;5055427;28;20062;-85
2022/10/30 07:40:19;;;;;;;40.25;37.53;;;;;;;17.21;100.00;101668.59;5051231;28;20049;-83
2022/10/30 07:42:46;;;;;;;39.83;37.03;;;;;;;17.10;100.00;101669.38;5053300;28;20480;-83
2022/10/30 07:45:13;;;;;;;38.78;36.25;;;;;;;17.50;100.00;101668.84;5052142;28;20045;-83
2022/10/30 07:47:42;;;;;;;38.83;36.05;;;;;;;18.26;100.00;101659.16;5053781;28;20115;-83
2022/10/30 07:50:10;;;;;;;38.80;35.97;;;;;;;18.00;100.00;101669.34;5054088;28;20118;-85
2022/10/30 07:52:37;;;;;;;39.72;36.92;;;;;;;18.01;100.00;101668.28;5054177;28;20431;-81
2022/10/30 07:55:04;;;;;;;40.42;37.53;;;;;;;17.68;100.00;101666.09;5054182;28;20045;-85
2022/10/30 07:57:34;;;;;;;39.10;36.50;;;;;;;18.34;100.00;101661.50;5052737;28;20041;-83
2022/10/30 08:00:01;;;;;;;39.55;36.67;;;;;;;17.90;100.00;101662.88;5053648;28;20056;-82
2022/10/30 08:02:28;;;;;;;39.40;36.85;;;;;;;17.83;100.00;101660.31;5053936;28;20052;-82
2022/10/30 08:04:56;;;;;;;38.55;36.05;;;;;;;17.21;100.00;101657.06;5053916;28;20547;-82
2022/10/30 08:07:23;;;;;;;39.58;37.03;;;;;;;17.20;100.00;101653.56;5053449;28;20053;-82
2022/10/30 08:09:49;;;;;;;40.90;37.90;;;;;;;17.81;100.00;101641.72;5042842;28;20107;-82
2022/10/30 08:12:16;;;;;;;40.60;37.78;;;;;;;19.22;100.00;101630.78;5053414;28;20441;-85
2022/10/30 08:14:43;;;;;;;41.53;38.38;;;;;;;19.02;100.00;101626.88;5054046;28;20045;-83
2022/10/30 08:17:10;;;;;;;40.88;37.92;;;;;;;17.23;100.00;101634.31;5053155;28;21398;-82
2022/10/30 08:19:36;;;;;;;41.53;38.83;;;;;;;17.93;100.00;101627.47;5054331;28;20045;-85
2022/10/30 08:22:05;;;;;;;40.25;37.40;;;;;;;19.85;100.00;101615.44;5053494;28;20547;-85
2022/10/30 08:24:31;;;;;;;40.53;37.83;;;;;;;18.82;100.00;101622.75;5049767;28;20151;-82
2022/10/30 08:26:58;;;;;;;42.00;39.20;;;;;;;20.02;100.00;101615.41;5053160;28;20044;-82
2022/10/30 08:29:25;;;;;;;42.40;39.33;;;;;;;18.81;100.00;101622.97;5052224;28;20558;-85
2022/10/30 08:31:52;;;;;;;40.78;37.90;;;;;;;18.68;100.00;101616.78;5050293;28;20052;-82
2022/10/30 08:34:18;;;;;;;42.72;39.45;;;;;;;19.66;100.00;101611.34;5053045;28;20408;-83
2022/10/30 08:36:47;;;;;;;42.42;39.40;;;;;;;19.95;100.00;101609.38;5051831;28;20055;-83
2022/10/30 08:39:15;;;;;;;42.60;39.67;;;;;;;20.32;100.00;101606.94;5053027;28;20124;-83
2022/10/30 08:41:42;;;;;;;43.13;39.70;;;;;;;20.80;91.53;101602.69;5051577;28;20055;-83
2022/10/30 08:44:09;;;;;;;41.42;38.53;;;;;;;19.98;100.00;101599.97;5052234;28;20052;-82
2022/10/30 08:46:37;;;;;;;42.22;39.17;;;;;;;20.59;100.00;101593.53;5054741;28;20323;-82
2022/10/30 08:49:04;;;;;;;41.00;38.20;;;;;;;20.69;100.00;101592.03;5054401;28;20052;-82
2022/10/30 08:51:32;;;;;;;41.60;38.55;;;;;;;20.10;100.00;101593.41;5051119;28;20683;-81
2022/10/30 08:53:59;;;;;;;42.40;39.50;;;;;;;20.58;100.00;101594.63;5053760;28;20072;-82
2022/10/30 08:56:27;;;;;;;41.13;38.25;;;;;;;20.93;100.00;101596.06;5052824;28;20064;-82
2022/10/30 08:58:54;;;;;;;42.17;39.38;;;;;;;21.49;99.53;101587.72;5053657;28;20053;-82
2022/10/30 09:01:21;;;;;;;41.08;38.22;;;;;;;22.01;100.00;101572.69;5052673;28;20049;-82
2022/10/30 09:03:48;;;;;;;42.15;39.05;;;;;;;23.68;84.90;101578.81;5051789;28;20049;-84
2022/10/30 09:06:14;;;;;;;41.55;38.83;;;;;;;21.21;98.10;101583.38;5051288;28;20106;-85
2022/10/30 09:08:41;;;;;;;41.15;38.25;;;;;;;22.82;91.46;101569.53;5050376;28;20432;-83
2022/10/30 09:11:08;;;;;;;41.13;38.42;;;;;;;22.09;82.78;101570.31;5051785;28;20045;-82
2022/10/30 09:13:36;;;;;;;41.55;38.65;;;;;;;20.95;100.00;101564.25;5052340;28;20041;-82
2022/10/30 09:16:04;;;;;;;42.08;38.80;;;;;;;20.20;100.00;101557.69;5052202;28;20540;-81
2022/10/30 09:18:31;;;;;;;41.67;38.78;;;;;;;20.65;100.00;101564.72;5043361;28;20057;-81
2022/10/30 09:20:58;;;;;;;42.42;39.22;;;;;;;22.98;86.90;101546.03;5049943;28;20037;-83
2022/10/30 09:23:24;;;;;;;41.42;38.63;;;;;;;21.88;96.67;101553.13;5051909;28;20449;-84
2022/10/30 09:25:51;;;;;;;42.42;39.55;;;;;;;22.46;84.08;101563.19;5051837;28;20045;-84
2022/10/30 09:28:19;;;;;;;42.40;39.42;;;;;;;22.00;81.87;101552.94;5055985;28;20469;-82
2022/10/30 09:30:51;;;;;;;42.35;39.22;;;;;;;23.58;77.39;101551.72;5056225;28;20129;-85
2022/10/30 09:33:18;;;;;;;43.15;39.88;;;;;;;21.42;86.99;101560.09;5056387;28;20041;-84
2022/10/30 09:35:45;;;;;;;42.42;39.63;;;;;;;20.38;100.00;101553.84;5056767;28;20056;-84
2022/10/30 09:38:11;;;;;;;42.65;39.40;;;;;;;20.86;100.00;101548.75;5056924;28;20053;-85
2022/10/30 09:40:53;;;;;;;43.20;40.35;;;;;;;21.15;98.08;101550.13;5049768;28;20060;-85
2022/10/30 09:43:34;;;;;;;42.13;39.03;;;;;;;21.55;81.58;101543.47;5055001;28;20049;-85
2022/10/30 09:46:26;;;;;;;43.25;40.03;;;;;;;21.98;95.06;101546.97;5057225;28;20106;-85
2022/10/30 09:49:13;;;;;;;43.05;40.15;;;;;;;23.38;88.21;101542.50;5051232;28;20484;-85
2022/10/30 09:52:04;;;;;;;43.25;40.25;;;;;;;22.05;86.25;101541.31;5051210;28;20471;-84
2022/10/30 09:54:44;;;;;;;41.53;38.58;;;;;;;22.92;81.05;101533.53;5050783;28;20049;-84
2022/10/30 09:57:19;;;;;;;41.08;38.03;;;;;;;21.89;86.15;101545.84;5055491;28;20056;-82
2022/10/30 10:00:02;;;;;;;42.95;39.67;;;;;;;22.45;87.50;101545.31;5053659;28;20045;-84
2022/10/30 10:02:36;;;;;;;44.60;41.38;;;;;;;21.92;95.26;101535.31;5050493;28;20118;-82
2022/10/30 10:05:12;;;;;;;43.90;40.58;;;;;;;22.58;89.48;101537.50;5052825;28;20132;-82
2022/10/30 10:07:45;;;;;;;41.45;38.45;;;;;;;22.88;72.74;101525.13;5056494;28;20140;-82
2022/10/30 10:10:19;;;;;;;40.92;37.80;;;;;;;22.01;74.84;101532.13;5058819;28;20049;-83
2022/10/30 10:12:49;;;;;;;42.78;39.67;;;;;;;20.69;93.32;101527.25;5058534;28;20443;-84
2022/10/30 10:15:28;;;;;;;43.78;40.58;;;;;;;20.66;88.60;101516.97;5055927;28;20421;-85
2022/10/30 10:17:59;;;;;;;41.17;38.38;;;;;;;23.43;78.25;101517.31;5057185;28;20053;-82
2022/10/30 10:20:33;;;;;;;41.50;38.40;;;;;;;22.47;83.88;101518.81;5055473;28;20080;-83
2022/10/30 10:23:04;;;;;;;42.65;39.75;;;;;;;22.19;80.02;101523.56;5056117;28;20115;-82
2022/10/30 10:25:31;;;;;;;43.83;40.43;;;;;;;24.04;72.33;101514.47;5057281;28;20140;-82
2022/10/30 10:28:13;;;;;;;44.13;40.83;;;;;;;23.35;69.89;101510.53;5058564;28;20099;-82
2022/10/30 10:30:51;;;;;;;41.97;38.97;;;;;;;22.23;91.66;101507.63;5050078;28;20045;-85
2022/10/30 10:33:45;;;;;;;42.13;38.92;;;;;;;22.12;88.11;101502.16;5048931;28;20547;-85
2022/10/30 10:36:25;;;;;;;42.95;39.65;;;;;;;22.79;80.29;101491.53;5049797;28;20059;-85
2022/10/30 10:39:06;;;;;;;41.47;38.47;;;;;;;24.42;69.80;101487.75;5044142;28;20057;-85
2022/10/30 10:41:52;;;;;;;45.88;41.58;;;;;;;24.04;66.62;101490.06;5043381;28;20060;-81
2022/10/30 10:44:33;;;;;;;43.22;39.85;;;;;;;22.55;73.68;101488.50;5051363;28;20436;-84
2022/10/30 10:47:18;;;;;;;42.17;39.13;;;;;;;24.46;62.32;101475.22;5059109;23;20049;-82
2022/10/30 10:50:03;;;;;;;42.42;39.53;;;;;;;24.13;63.30;101471.31;5064358;28;20486;-78
2022/10/30 10:52:37;;;;;;;42.22;39.25;;;;;;;23.49;71.75;101470.13;5067813;28;20037;-79
2022/10/30 10:55:07;;;;;;;41.75;38.92;;;;;;;25.17;59.90;101463.00;5049338;28;20456;-79
2022/10/30 10:57:37;;;;;;;43.05;40.08;;;;;;;22.80;78.03;101458.75;5046889;28;20041;-81
2022/10/30 11:00:08;;;;;;;42.78;39.88;;;;;;;22.68;75.70;101469.03;5049933;28;20049;-80
2022/10/30 11:02:47;;;;;;;42.42;39.40;;;;;;;22.38;78.93;101458.97;5059373;28;20088;-78
2022/10/30 11:05:24;;;;;;;42.78;39.50;;;;;;;22.27;65.70;101447.31;5044847;28;20921;-82
2022/10/30 11:07:58;;;;;;;42.53;39.63;;;;;;;25.51;57.68;101437.69;5052105;28;20037;-78
2022/10/30 11:10:25;;;;;;;41.58;38.33;;;;;;;25.26;52.40;101441.47;5045785;28;20048;-78
2022/10/30 11:12:52;;;;;;;43.50;40.50;;;;;;;23.39;71.81;101441.16;5068002;28;20045;-80
2022/10/30 11:15:26;;;;;;;42.25;39.15;;;;;;;23.92;64.79;101430.69;5052284;28;20052;-80
2022/10/30 11:17:59;;;;;;;41.83;38.67;;;;;;;23.38;54.65;101436.81;5044553;28;20041;-80